Time;durP1;ratioP1;P1;durP2;ratioP2;P2;SDS_P1;SDS_P2;PMS_P1;PMS_P2;Temp;Humidity;BMP_temperature;BMP_pressure;BME280_temperature;BME280_humidity;BME280_pressure;Samples;Min_cycle;Max_cycle;Signal;HPM_P1;HPM_P2
2022/04/23 00:00:51;;;;;;;;;;;17.40;84.70;;;;;;2013307;28;19912;-76
2022/04/23 00:01:50;;;;;;;;;;;17.40;84.80;;;;;;2013314;28;19996;-77
2022/04/23 00:02:48;;;;;;;;;;;17.40;84.80;;;;;;2013317;28;19905;-79
2022/04/23 00:03:47;;;;;;;;;;;17.40;84.70;;;;;;2013201;28;20400;-76
2022/04/23 00:04:46;;;;;;;;;;;17.40;84.50;;;;;;2013332;28;20340;-77
2022/04/23 00:05:44;;;;;;;;;;;17.40;84.80;;;;;;2013368;28;20260;-78
2022/04/23 00:06:43;;;;;;;;;;;17.40;84.70;;;;;;2013220;28;19904;-76
2022/04/23 00:07:42;;;;;;;;;;;17.40;84.80;;;;;;2013266;28;19958;-79
2022/04/23 00:08:41;;;;;;;;;;;17.40;84.70;;;;;;2013234;28;19963;-76
2022/04/23 00:09:40;;;;;;;;;;;17.40;84.80;;;;;;2013211;28;20266;-77
2022/04/23 00:10:38;;;;;;;;;;;17.40;84.80;;;;;;2013345;28;19928;-77
2022/04/23 00:11:37;;;;;;;;;;;17.40;84.90;;;;;;2013146;28;20371;-76
2022/04/23 00:12:35;;;;;;;;;;;17.40;84.70;;;;;;2013416;28;19909;-78
2022/04/23 00:13:35;;;;;;;;;;;17.40;84.80;;;;;;2013313;28;19920;-79
2022/04/23 00:14:34;;;;;;;;;;;17.40;84.70;;;;;;2013281;28;20011;-77
2022/04/23 00:15:38;;;;;;;;;;;17.40;84.80;;;;;;2013286;28;20261;-78
2022/04/23 00:16:37;;;;;;;;;;;17.40;84.80;;;;;;2013204;28;19909;-77
2022/04/23 00:17:36;;;;;;;;;;;17.30;84.60;;;;;;2013159;28;19905;-77
2022/04/23 00:18:35;;;;;;;;;;;17.40;84.80;;;;;;2013232;28;19908;-77
2022/04/23 00:19:35;;;;;;;;;;;17.30;84.60;;;;;;2013319;28;19909;-77
2022/04/23 00:20:35;;;;;;;;;;;17.40;84.80;;;;;;2012529;28;20403;-76
2022/04/23 00:21:33;;;;;;;;;;;17.30;84.60;;;;;;2013209;28;20249;-76
2022/04/23 00:22:35;;;;;;;;;;;17.40;84.80;;;;;;2013304;28;19912;-76
2022/04/23 00:23:34;;;;;;;;;;;17.30;84.60;;;;;;2013248;28;19905;-76
2022/04/23 00:24:32;;;;;;;;;;;17.30;85.30;;;;;;2013173;28;19905;-77
2022/04/23 00:25:31;;;;;;;;;;;17.30;84.60;;;;;;2013360;28;19905;-76
2022/04/23 00:26:30;;;;;;;;;;;17.30;84.60;;;;;;2013170;28;19905;-76
2022/04/23 00:27:28;;;;;;;;;;;17.30;84.60;;;;;;2013085;28;19953;-77
2022/04/23 00:28:27;;;;;;;;;;;17.30;84.60;;;;;;2013241;28;20277;-77
2022/04/23 00:29:26;;;;;;;;;;;17.30;84.60;;;;;;2012575;28;19905;-78
2022/04/23 00:30:24;;;;;;;;;;;17.30;84.50;;;;;;2012763;28;19905;-77
2022/04/23 00:31:23;;;;;;;;;;;17.30;84.60;;;;;;2013377;28;19911;-77
2022/04/23 00:32:21;;;;;;;;;;;17.30;84.60;;;;;;2013199;28;19909;-78
2022/04/23 00:33:19;;;;;;;;;;;17.30;84.60;;;;;;2013186;28;19932;-77
2022/04/23 00:34:18;;;;;;;;;;;17.30;84.60;;;;;;2013316;28;19975;-76
2022/04/23 00:35:17;;;;;;;;;;;17.30;84.60;;;;;;2013272;28;19909;-75
2022/04/23 00:36:16;;;;;;;;;;;17.30;84.70;;;;;;2012988;28;19927;-78
2022/04/23 00:37:14;;;;;;;;;;;17.30;84.60;;;;;;2013549;28;19905;-76
2022/04/23 00:38:12;;;;;;;;;;;17.30;84.60;;;;;;2013350;28;19911;-76
2022/04/23 00:39:11;;;;;;;;;;;17.30;84.60;;;;;;2013161;28;20364;-75
2022/04/23 00:40:16;;;;;;;;;;;17.30;84.70;;;;;;2013220;28;19913;-76
2022/04/23 00:42:53;;;;;;;;;;;17.30;84.70;;;;;;1981026;29;19957;-76
2022/04/23 00:43:52;;;;;;;;;;;17.30;84.70;;;;;;1981052;29;20413;-76
2022/04/23 00:44:50;;;;;;;;;;;17.30;84.60;;;;;;1981194;29;19929;-77
2022/04/23 00:45:50;;;;;;;;;;;17.30;84.60;;;;;;1981228;29;19907;-78
2022/04/23 00:46:48;;;;;;;;;;;17.40;84.70;;;;;;1980973;29;19913;-76
2022/04/23 00:47:47;;;;;;;;;;;17.30;84.60;;;;;;1980998;29;20029;-77
2022/04/23 00:48:45;;;;;;;;;;;17.30;84.60;;;;;;1996057;28;19940;-76
2022/04/23 00:49:44;;;;;;;;;;;17.30;84.60;;;;;;2011898;28;19905;-77
2022/04/23 00:50:42;;;;;;;;;;;17.30;84.60;;;;;;2013120;28;19958;-76
2022/04/23 00:51:41;;;;;;;;;;;17.30;84.60;;;;;;2013220;28;19951;-76
2022/04/23 00:52:40;;;;;;;;;;;17.30;84.60;;;;;;2012408;28;19932;-77
2022/04/23 00:53:38;;;;;;;;;;;17.20;84.50;;;;;;2012510;28;19912;-76
2022/04/23 00:54:38;;;;;;;;;;;17.30;84.60;;;;;;2013172;28;19951;-77
2022/04/23 00:55:37;;;;;;;;;;;17.60;84.90;;;;;;2012807;28;19909;-77
2022/04/23 00:56:36;;;;;;;;;;;17.20;84.50;;;;;;2012970;28;19944;-77
2022/04/23 00:57:35;;;;;;;;;;;17.30;84.70;;;;;;2013055;28;19967;-78
2022/04/23 00:58:34;;;;;;;;;;;17.20;84.50;;;;;;2013024;28;19905;-78
2022/04/23 00:59:32;;;;;;;;;;;17.30;84.60;;;;;;2013018;28;19912;-76
2022/04/23 01:00:31;;;;;;;;;;;17.20;84.60;;;;;;2012976;28;19913;-76
2022/04/23 01:01:29;;;;;;;;;;;17.20;84.50;;;;;;2013059;28;19905;-76
2022/04/23 01:02:27;;;;;;;;;;;17.20;84.50;;;;;;2013105;28;19912;-76
2022/04/23 01:03:26;;;;;;;;;;;17.20;84.60;;;;;;2013044;28;20317;-77
2022/04/23 01:04:24;;;;;;;;;;;17.20;84.50;;;;;;2013040;28;19905;-77
2022/04/23 01:05:23;;;;;;;;;;;17.20;84.50;;;;;;2012960;28;19905;-76
2022/04/23 01:06:23;;;;;;;;;;;17.20;84.50;;;;;;2013137;28;19912;-77
2022/04/23 01:07:22;;;;;;;;;;;17.20;84.50;;;;;;2013155;28;19912;-76
2022/04/23 01:08:20;;;;;;;;;;;17.20;84.50;;;;;;2013035;28;19943;-77
2022/04/23 01:09:20;;;;;;;;;;;17.20;84.60;;;;;;2013029;28;19955;-77
2022/04/23 01:10:19;;;;;;;;;;;17.20;84.60;;;;;;2013003;28;19905;-77
2022/04/23 01:11:17;;;;;;;;;;;17.20;84.60;;;;;;2013126;28;19971;-79
2022/04/23 01:12:17;;;;;;;;;;;17.20;84.60;;;;;;2012868;28;19905;-76
2022/04/23 01:13:16;;;;;;;;;;;17.20;84.60;;;;;;2013071;28;20271;-76
2022/04/23 01:14:16;;;;;;;;;;;17.20;84.50;;;;;;2013099;28;19940;-75
2022/04/23 01:15:14;;;;;;;;;;;17.20;84.50;;;;;;2013003;28;19961;-78
2022/04/23 01:16:13;;;;;;;;;;;17.20;84.50;;;;;;2012831;28;20052;-77
2022/04/23 01:17:11;;;;;;;;;;;17.20;84.50;;;;;;2013272;28;19905;-76
2022/04/23 01:18:16;;;;;;;;;;;17.20;84.50;;;;;;2013051;28;19911;-76
2022/04/23 01:19:15;;;;;;;;;;;17.20;84.50;;;;;;2012971;28;19905;-78
2022/04/23 01:20:14;;;;;;;;;;;17.20;84.50;;;;;;2013038;28;19967;-76
2022/04/23 01:21:13;;;;;;;;;;;17.20;84.50;;;;;;2012936;28;19905;-76
2022/04/23 01:22:12;;;;;;;;;;;17.20;84.50;;;;;;2012874;28;19992;-76
2022/04/23 01:23:10;;;;;;;;;;;17.20;84.50;;;;;;2012279;28;20423;-75
2022/04/23 01:24:09;;;;;;;;;;;17.20;84.50;;;;;;2012230;28;19916;-75
2022/04/23 01:25:08;;;;;;;;;;;17.20;84.50;;;;;;2012875;28;19912;-76
2022/04/23 01:26:08;;;;;;;;;;;17.20;84.40;;;;;;2012907;28;19967;-76
2022/04/23 01:27:07;;;;;;;;;;;17.20;84.50;;;;;;2013023;28;19948;-76
2022/04/23 01:28:07;;;;;;;;;;;17.20;84.50;;;;;;2012874;28;19912;-76
2022/04/23 01:29:05;;;;;;;;;;;17.20;84.50;;;;;;2013046;28;20410;-76
2022/04/23 01:30:04;;;;;;;;;;;17.20;84.40;;;;;;2013138;28;20058;-76
2022/04/23 01:31:04;;;;;;;;;;;17.20;84.40;;;;;;2012926;28;19911;-76
2022/04/23 01:32:05;;;;;;;;;;;17.20;84.40;;;;;;2012647;28;19912;-77
2022/04/23 01:33:04;;;;;;;;;;;17.20;84.40;;;;;;2013961;28;19912;-77
2022/04/23 01:34:04;;;;;;;;;;;17.20;84.40;;;;;;2014546;28;19912;-77
2022/04/23 01:35:04;;;;;;;;;;;17.20;84.40;;;;;;2014646;28;20050;-77
2022/04/23 01:36:03;;;;;;;;;;;17.20;84.30;;;;;;2013905;28;19958;-77
2022/04/23 01:37:01;;;;;;;;;;;17.20;84.40;;;;;;2013830;28;20302;-77
2022/04/23 01:37:59;;;;;;;;;;;17.30;84.50;;;;;;2014499;28;19949;-76
2022/04/23 01:38:58;;;;;;;;;;;17.20;84.40;;;;;;2014486;28;20004;-78
2022/04/23 01:39:56;;;;;;;;;;;17.20;84.40;;;;;;2014462;28;19909;-77
2022/04/23 01:40:55;;;;;;;;;;;17.20;84.40;;;;;;2014474;28;19911;-76
2022/04/23 01:41:53;;;;;;;;;;;17.20;84.20;;;;;;2014583;28;19928;-77
2022/04/23 01:42:53;;;;;;;;;;;17.20;84.30;;;;;;2014342;28;19908;-76
2022/04/23 01:43:51;;;;;;;;;;;17.20;84.30;;;;;;2013771;28;20264;-76
2022/04/23 01:44:51;;;;;;;;;;;17.20;84.30;;;;;;2013832;28;19905;-78
2022/04/23 01:45:49;;;;;;;;;;;17.20;84.30;;;;;;2014434;28;20339;-77
2022/04/23 01:46:47;;;;;;;;;;;17.20;84.30;;;;;;2014251;28;19905;-76
2022/04/23 01:47:46;;;;;;;;;;;17.20;84.30;;;;;;2014447;28;19959;-76
2022/04/23 01:48:45;;;;;;;;;;;17.20;84.30;;;;;;2014348;28;19905;-78
2022/04/23 01:49:44;;;;;;;;;;;17.10;84.20;;;;;;2014427;28;19968;-76
2022/04/23 01:50:43;;;;;;;;;;;17.10;84.20;;;;;;2014480;28;19944;-76
2022/04/23 01:51:41;;;;;;;;;;;17.10;84.30;;;;;;2014321;28;19905;-75
2022/04/23 01:52:40;;;;;;;;;;;17.10;84.30;;;;;;2018295;28;19905;-76
2022/04/23 01:53:38;;;;;;;;;;;17.10;84.20;;;;;;2019485;28;19909;-76
2022/04/23 01:54:37;;;;;;;;;;;17.10;84.20;;;;;;2019138;28;19966;-76
2022/04/23 01:55:36;;;;;;;;;;;17.10;84.20;;;;;;2018933;28;19917;-76
2022/04/23 01:56:34;;;;;;;;;;;17.10;84.20;;;;;;2019222;28;19905;-76
2022/04/23 01:57:33;;;;;;;;;;;17.10;84.20;;;;;;2018932;28;19928;-76
2022/04/23 01:58:31;;;;;;;;;;;17.20;84.30;;;;;;2020671;28;19947;-77
2022/04/23 01:59:30;;;;;;;;;;;17.10;84.20;;;;;;2021031;28;19943;-76
2022/04/23 02:00:28;;;;;;;;;;;17.20;84.20;;;;;;2019708;28;19936;-76
2022/04/23 02:01:27;;;;;;;;;;;17.10;84.20;;;;;;2019641;28;19916;-75
2022/04/23 02:02:25;;;;;;;;;;;17.10;84.20;;;;;;2020364;28;19904;-75
2022/04/23 02:03:23;;;;;;;;;;;17.10;84.20;;;;;;2020152;28;19905;-76
2022/04/23 02:04:22;;;;;;;;;;;17.10;84.20;;;;;;2018498;28;19904;-76
2022/04/23 02:05:22;;;;;;;;;;;17.10;84.20;;;;;;2017692;28;19905;-76
2022/04/23 02:06:20;;;;;;;;;;;17.10;84.20;;;;;;2014872;28;19905;-75
2022/04/23 02:07:19;;;;;;;;;;;17.10;84.30;;;;;;2014928;28;19988;-75
2022/04/23 02:08:18;;;;;;;;;;;17.10;84.30;;;;;;2015058;28;20288;-78
2022/04/23 02:09:17;;;;;;;;;;;17.10;84.30;;;;;;2016922;28;19905;-76
2022/04/23 02:10:16;;;;;;;;;;;17.10;84.30;;;;;;2014243;28;19905;-76
2022/04/23 02:11:14;;;;;;;;;;;17.10;84.30;;;;;;2014292;28;20011;-78
2022/04/23 02:12:12;;;;;;;;;;;17.10;84.30;;;;;;2014252;28;19928;-77
2022/04/23 02:13:11;;;;;;;;;;;17.10;84.30;;;;;;2014232;28;19905;-77
2022/04/23 02:14:09;;;;;;;;;;;17.00;84.10;;;;;;2014171;28;19927;-76
2022/04/23 02:15:12;;;;;;;;;;;17.10;84.30;;;;;;2014329;28;19905;-76
2022/04/23 02:16:10;;;;;;;;;;;17.10;84.30;;;;;;2013620;28;19992;-78
2022/04/23 02:17:09;;;;;;;;;;;17.10;84.30;;;;;;2013624;28;19909;-78
2022/04/23 02:18:08;;;;;;;;;;;17.10;84.30;;;;;;2014258;28;19971;-77
2022/04/23 02:19:08;;;;;;;;;;;17.10;84.30;;;;;;2013593;28;20393;-76
2022/04/23 02:20:07;;;;;;;;;;;17.10;84.20;;;;;;2013803;28;19912;-79
2022/04/23 02:21:06;;;;;;;;;;;17.10;84.20;;;;;;2014585;28;19905;-76
2022/04/23 02:22:05;;;;;;;;;;;17.00;84.20;;;;;;2014568;28;19912;-76
2022/04/23 02:23:04;;;;;;;;;;;17.10;84.30;;;;;;2014438;28;19905;-76
2022/04/23 02:24:04;;;;;;;;;;;17.10;84.30;;;;;;2014644;28;19911;-76
2022/04/23 02:25:04;;;;;;;;;;;17.00;84.30;;;;;;2014907;28;19905;-76
2022/04/23 02:26:05;;;;;;;;;;;17.10;84.30;;;;;;2014836;28;20379;-77
2022/04/23 02:27:03;;;;;;;;;;;17.10;84.20;;;;;;2014541;28;19905;-77
2022/04/23 02:28:02;;;;;;;;;;;17.10;84.30;;;;;;2014407;28;19905;-76
2022/04/23 02:29:01;;;;;;;;;;;17.10;84.20;;;;;;2014797;28;20384;-77
2022/04/23 02:29:59;;;;;;;;;;;17.00;84.20;;;;;;2014009;28;19905;-77
2022/04/23 02:30:58;;;;;;;;;;;17.00;84.20;;;;;;2013424;28;19912;-76
2022/04/23 02:31:56;;;;;;;;;;;17.00;84.10;;;;;;2013529;28;19915;-77
2022/04/23 02:32:55;;;;;;;;;;;17.00;84.10;;;;;;2014195;28;19905;-78
2022/04/23 02:33:53;;;;;;;;;;;17.00;84.10;;;;;;2014146;28;19905;-76
2022/04/23 02:34:52;;;;;;;;;;;17.00;84.10;;;;;;2014138;28;20304;-79
2022/04/23 02:35:51;;;;;;;;;;;17.00;84.20;;;;;;2013977;28;19992;-77
2022/04/23 02:36:49;;;;;;;;;;;17.00;84.10;;;;;;2014192;28;19905;-77
2022/04/23 02:37:48;;;;;;;;;;;17.10;84.30;;;;;;2005409;28;19917;-77
2022/04/23 02:38:50;;;;;;;;;;;17.00;84.10;;;;;;2005509;28;19913;-77
2022/04/23 02:39:48;;;;;;;;;;;17.00;84.10;;;;;;2013995;28;19909;-77
2022/04/23 02:40:47;;;;;;;;;;;17.00;84.10;;;;;;2013930;28;20248;-75
2022/04/23 02:41:45;;;;;;;;;;;17.00;84.10;;;;;;2014020;28;19912;-76
2022/04/23 02:42:44;;;;;;;;;;;17.00;84.10;;;;;;2013937;28;20003;-75
2022/04/23 02:43:45;;;;;;;;;;;17.00;84.10;;;;;;2012919;28;19955;-75
2022/04/23 02:44:45;;;;;;;;;;;17.00;84.10;;;;;;2013872;28;19909;-77
2022/04/23 02:45:44;;;;;;;;;;;17.00;84.10;;;;;;2014080;28;19905;-76
2022/04/23 02:46:45;;;;;;;;;;;17.00;84.10;;;;;;2013799;28;19905;-77
2022/04/23 02:47:46;;;;;;;;;;;17.00;84.10;;;;;;2013914;28;19905;-76
2022/04/23 02:48:45;;;;;;;;;;;17.00;84.10;;;;;;2013900;28;19905;-76
2022/04/23 02:49:43;;;;;;;;;;;17.00;84.10;;;;;;2013824;28;20402;-76
2022/04/23 02:50:42;;;;;;;;;;;17.00;84.10;;;;;;2013956;28;19905;-78
2022/04/23 02:51:42;;;;;;;;;;;17.00;84.10;;;;;;2013924;28;20265;-76
2022/04/23 02:52:42;;;;;;;;;;;17.00;84.10;;;;;;2013862;28;19911;-77
2022/04/23 02:53:40;;;;;;;;;;;17.00;84.10;;;;;;2013870;28;19912;-76
2022/04/23 02:54:38;;;;;;;;;;;17.00;84.10;;;;;;2013971;28;19955;-76
2022/04/23 02:55:37;;;;;;;;;;;17.00;84.10;;;;;;2013125;28;20272;-77
2022/04/23 02:56:36;;;;;;;;;;;17.00;84.10;;;;;;2013137;28;19912;-77
2022/04/23 02:57:35;;;;;;;;;;;16.90;84.00;;;;;;2013972;28;19912;-78
2022/04/23 02:58:33;;;;;;;;;;;17.00;84.10;;;;;;2013923;28;20085;-77
2022/04/23 02:59:32;;;;;;;;;;;17.00;84.10;;;;;;2013928;28;19951;-78
2022/04/23 03:00:31;;;;;;;;;;;17.00;84.10;;;;;;2013766;28;20012;-77
2022/04/23 03:01:30;;;;;;;;;;;17.00;84.10;;;;;;2013952;28;19912;-77
2022/04/23 03:02:28;;;;;;;;;;;17.00;84.10;;;;;;2013167;28;19911;-78
2022/04/23 03:03:26;;;;;;;;;;;17.00;84.00;;;;;;2013316;28;19962;-77
2022/04/23 03:04:25;;;;;;;;;;;17.00;84.10;;;;;;2013148;28;19963;-76
2022/04/23 03:05:24;;;;;;;;;;;17.00;84.10;;;;;;2013286;28;19905;-77
2022/04/23 03:06:28;;;;;;;;;;;17.00;84.10;;;;;;2013680;28;19912;-76
2022/04/23 03:07:29;;;;;;;;;;;17.00;84.00;;;;;;2013798;28;19905;-77
2022/04/23 03:08:28;;;;;;;;;;;17.00;84.00;;;;;;2013109;28;20422;-76
2022/04/23 03:09:26;;;;;;;;;;;17.00;84.00;;;;;;2013283;28;20031;-77
2022/04/23 03:10:25;;;;;;;;;;;17.00;84.10;;;;;;2012632;28;19905;-77
2022/04/23 03:11:23;;;;;;;;;;;17.00;84.10;;;;;;2013215;28;19940;-78
2022/04/23 03:12:22;;;;;;;;;;;17.00;84.10;;;;;;2013715;28;19940;-75
2022/04/23 03:13:20;;;;;;;;;;;17.00;84.00;;;;;;2013915;28;20272;-78
2022/04/23 03:14:20;;;;;;;;;;;17.00;84.00;;;;;;2013135;28;19916;-77
2022/04/23 03:15:18;;;;;;;;;;;17.00;83.90;;;;;;2013307;28;19912;-75
2022/04/23 03:16:17;;;;;;;;;;;17.00;84.00;;;;;;2013506;28;19905;-76
2022/04/23 03:17:15;;;;;;;;;;;17.00;84.00;;;;;;2013642;28;20344;-76
2022/04/23 03:18:14;;;;;;;;;;;17.00;83.90;;;;;;2013910;28;19949;-76
2022/04/23 03:19:12;;;;;;;;;;;17.00;84.00;;;;;;2013812;28;19920;-77
2022/04/23 03:20:12;;;;;;;;;;;17.00;84.00;;;;;;2013575;28;19913;-76
2022/04/23 03:21:10;;;;;;;;;;;17.00;83.90;;;;;;2013073;28;19940;-75
2022/04/23 03:22:09;;;;;;;;;;;17.00;83.90;;;;;;2013141;28;19908;-77
2022/04/23 03:23:09;;;;;;;;;;;17.00;83.90;;;;;;2013644;28;19905;-77
2022/04/23 03:24:07;;;;;;;;;;;17.00;83.90;;;;;;2013788;28;20395;-76
2022/04/23 03:25:06;;;;;;;;;;;17.00;83.90;;;;;;2013619;28;19909;-78
2022/04/23 03:26:05;;;;;;;;;;;17.00;83.90;;;;;;2013585;28;19906;-76
2022/04/23 03:27:03;;;;;;;;;;;16.90;83.80;;;;;;2013633;28;19905;-77
2022/04/23 03:28:02;;;;;;;;;;;17.00;83.90;;;;;;2013502;28;19905;-76
2022/04/23 03:29:03;;;;;;;;;;;17.00;83.90;;;;;;2013698;28;19905;-76
2022/04/23 03:30:02;;;;;;;;;;;17.00;83.90;;;;;;2013860;28;19927;-77
2022/04/23 03:31:02;;;;;;;;;;;17.00;83.90;;;;;;2012933;28;19905;-75
2022/04/23 03:32:00;;;;;;;;;;;16.90;84.50;;;;;;2013065;28;19905;-77
2022/04/23 03:32:59;;;;;;;;;;;17.00;83.90;;;;;;2013485;28;20004;-75
2022/04/23 03:33:58;;;;;;;;;;;16.90;83.80;;;;;;2013668;28;19905;-77
2022/04/23 03:34:56;;;;;;;;;;;16.90;83.80;;;;;;2013552;28;19924;-77
2022/04/23 03:35:55;;;;;;;;;;;17.00;83.90;;;;;;2013606;28;19905;-76
2022/04/23 03:36:53;;;;;;;;;;;17.00;83.90;;;;;;2013526;28;19905;-76
2022/04/23 03:37:52;;;;;;;;;;;16.90;83.80;;;;;;2013587;28;20344;-76
2022/04/23 03:38:51;;;;;;;;;;;17.00;83.90;;;;;;2013457;28;19940;-76
2022/04/23 03:39:49;;;;;;;;;;;16.90;83.90;;;;;;2013603;28;19906;-76
2022/04/23 03:40:53;;;;;;;;;;;16.90;83.80;;;;;;2013453;28;20289;-77
2022/04/23 03:41:51;;;;;;;;;;;17.00;83.90;;;;;;2013523;28;19977;-77
2022/04/23 03:42:50;;;;;;;;;;;16.90;83.80;;;;;;2013477;28;20333;-77
2022/04/23 03:43:49;;;;;;;;;;;16.90;83.90;;;;;;2013500;28;19909;-75
2022/04/23 03:44:47;;;;;;;;;;;16.90;83.90;;;;;;2013619;28;19913;-76
2022/04/23 03:45:46;;;;;;;;;;;16.90;83.90;;;;;;2013415;28;19912;-75
2022/04/23 03:46:45;;;;;;;;;;;16.90;83.80;;;;;;2013374;28;19912;-76
2022/04/23 03:47:44;;;;;;;;;;;16.90;83.80;;;;;;2013483;28;19959;-77
2022/04/23 03:48:43;;;;;;;;;;;17.00;83.90;;;;;;2013470;28;20006;-76
2022/04/23 03:49:41;;;;;;;;;;;16.90;83.90;;;;;;2013554;28;19912;-77
2022/04/23 03:50:40;;;;;;;;;;;16.90;83.80;;;;;;2012853;28;20399;-76
2022/04/23 03:51:38;;;;;;;;;;;17.00;83.90;;;;;;2012874;28;19947;-76
2022/04/23 03:52:37;;;;;;;;;;;17.00;83.90;;;;;;2013400;28;20000;-77
2022/04/23 03:53:36;;;;;;;;;;;17.00;83.80;;;;;;2013635;28;19905;-77
2022/04/23 03:54:35;;;;;;;;;;;16.90;83.80;;;;;;2012934;28;19947;-77
2022/04/23 03:55:33;;;;;;;;;;;17.00;83.90;;;;;;2012645;28;20308;-78
2022/04/23 03:56:32;;;;;;;;;;;16.90;83.70;;;;;;2012838;28;19976;-77
2022/04/23 03:57:31;;;;;;;;;;;16.90;83.80;;;;;;2004808;28;19911;-78
2022/04/23 03:58:29;;;;;;;;;;;16.90;83.80;;;;;;2012372;28;19905;-77
2022/04/23 03:59:29;;;;;;;;;;;16.90;83.80;;;;;;2013389;28;19905;-77
2022/04/23 04:00:28;;;;;;;;;;;16.90;83.80;;;;;;2013481;28;20349;-77
2022/04/23 04:01:28;;;;;;;;;;;16.90;83.80;;;;;;2013294;28;19909;-76
2022/04/23 04:02:27;;;;;;;;;;;16.90;83.80;;;;;;2013346;28;20013;-76
2022/04/23 04:03:26;;;;;;;;;;;16.90;83.80;;;;;;2013406;28;20073;-76
2022/04/23 04:04:26;;;;;;;;;;;16.90;83.80;;;;;;2013300;28;19905;-76
2022/04/23 04:05:24;;;;;;;;;;;16.90;83.80;;;;;;2013264;28;20383;-77
2022/04/23 04:06:23;;;;;;;;;;;16.90;83.80;;;;;;2012496;28;19927;-77
2022/04/23 04:07:21;;;;;;;;;;;16.90;83.80;;;;;;2004774;28;19953;-78
2022/04/23 04:08:20;;;;;;;;;;;16.90;83.70;;;;;;2012176;28;19906;-77
2022/04/23 04:09:18;;;;;;;;;;;16.90;83.80;;;;;;2013211;28;19905;-77
2022/04/23 04:10:17;;;;;;;;;;;16.90;83.80;;;;;;2013275;28;19909;-78
2022/04/23 04:11:16;;;;;;;;;;;16.90;83.80;;;;;;2013289;28;20307;-78
2022/04/23 04:12:14;;;;;;;;;;;16.90;83.80;;;;;;2012608;28;19916;-79
2022/04/23 04:13:14;;;;;;;;;;;16.90;84.40;;;;;;2012838;28;20436;-77
2022/04/23 04:14:12;;;;;;;;;;;16.90;83.80;;;;;;2013261;28;19905;-76
2022/04/23 04:15:11;;;;;;;;;;;16.90;83.70;;;;;;2013308;28;20241;-77
2022/04/23 04:16:09;;;;;;;;;;;16.90;83.70;;;;;;2013224;28;19916;-76
2022/04/23 04:17:09;;;;;;;;;;;16.90;83.60;;;;;;2013184;28;19905;-77
2022/04/23 04:18:08;;;;;;;;;;;16.90;83.80;;;;;;2013232;28;19930;-75
2022/04/23 04:19:07;;;;;;;;;;;16.90;83.70;;;;;;2013487;28;19916;-75
2022/04/23 04:20:10;;;;;;;;;;;16.90;83.80;;;;;;2013285;28;20352;-76
2022/04/23 04:21:09;;;;;;;;;;;16.90;83.80;;;;;;2012498;28;19932;-77
2022/04/23 04:22:08;;;;;;;;;;;16.90;83.70;;;;;;2004691;28;19905;-77
2022/04/23 04:23:07;;;;;;;;;;;16.90;83.80;;;;;;2012435;28;19909;-76
2022/04/23 04:24:05;;;;;;;;;;;16.90;83.80;;;;;;2013262;28;19986;-78
2022/04/23 04:25:04;;;;;;;;;;;16.90;83.70;;;;;;2013307;28;19909;-76
2022/04/23 04:26:03;;;;;;;;;;;16.90;83.70;;;;;;2013312;28;19905;-76
2022/04/23 04:27:01;;;;;;;;;;;16.90;83.60;;;;;;2013091;28;20372;-76
2022/04/23 04:28:03;;;;;;;;;;;16.90;83.70;;;;;;2013178;28;19905;-76
2022/04/23 04:29:02;;;;;;;;;;;16.90;83.60;;;;;;2013116;28;19905;-76
2022/04/23 04:30:01;;;;;;;;;;;16.80;83.60;;;;;;2013218;28;19954;-77
2022/04/23 04:32:17;;;;;;;;;;;16.90;83.70;;;;;;2013276;28;19913;-77
2022/04/23 04:33:16;;;;;;;;;;;16.90;83.80;;;;;;2012523;28;19909;-77
2022/04/23 04:34:14;;;;;;;;;;;16.80;83.60;;;;;;2012614;28;19905;-77
2022/04/23 04:35:13;;;;;;;;;;;16.90;83.60;;;;;;2013239;28;19966;-76
2022/04/23 04:36:12;;;;;;;;;;;16.90;83.70;;;;;;2013520;28;19944;-76
2022/04/23 04:37:11;;;;;;;;;;;16.90;83.60;;;;;;2013074;28;19905;-77
2022/04/23 04:38:09;;;;;;;;;;;16.90;83.60;;;;;;2013144;28;19948;-77
2022/04/23 04:39:08;;;;;;;;;;;16.90;83.60;;;;;;2013119;28;19916;-76
2022/04/23 04:40:06;;;;;;;;;;;16.90;83.60;;;;;;2013097;28;19956;-77
2022/04/23 04:41:05;;;;;;;;;;;16.90;83.60;;;;;;2013036;28;19994;-78
2022/04/23 04:42:04;;;;;;;;;;;16.90;83.60;;;;;;2013707;28;19905;-76
2022/04/23 04:43:04;;;;;;;;;;;16.90;83.60;;;;;;2014892;28;19973;-76
2022/04/23 04:44:02;;;;;;;;;;;16.90;83.60;;;;;;2014864;28;19912;-76
2022/04/23 04:45:01;;;;;;;;;;;16.90;83.60;;;;;;2015623;28;19905;-76
2022/04/23 04:46:00;;;;;;;;;;;16.80;83.40;;;;;;2020792;28;19925;-76
2022/04/23 04:46:59;;;;;;;;;;;16.90;83.60;;;;;;2021323;28;19997;-73
2022/04/23 04:47:57;;;;;;;;;;;16.80;83.40;;;;;;2021451;28;19934;-75
2022/04/23 04:48:55;;;;;;;;;;;16.90;83.60;;;;;;2021567;28;19905;-76
2022/04/23 04:49:54;;;;;;;;;;;16.90;83.60;;;;;;2015448;28;19933;-76
2022/04/23 04:50:53;;;;;;;;;;;16.80;83.40;;;;;;2014275;28;20348;-76
2022/04/23 04:51:52;;;;;;;;;;;16.80;83.40;;;;;;2014430;28;20349;-76
2022/04/23 04:52:50;;;;;;;;;;;16.80;83.40;;;;;;2013606;28;19932;-78
2022/04/23 04:53:51;;;;;;;;;;;16.90;83.50;;;;;;2013286;28;19954;-77
2022/04/23 04:54:50;;;;;;;;;;;16.90;83.40;;;;;;2013397;28;19905;-78
2022/04/23 04:55:48;;;;;;;;;;;16.90;83.40;;;;;;2012375;28;20004;-77
2022/04/23 04:56:47;;;;;;;;;;;16.80;83.30;;;;;;2012437;28;20364;-75
2022/04/23 04:57:45;;;;;;;;;;;16.90;83.40;;;;;;2013111;28;19916;-78
2022/04/23 04:58:45;;;;;;;;;;;16.90;83.30;;;;;;2013095;28;19912;-77
2022/04/23 04:59:43;;;;;;;;;;;16.90;83.30;;;;;;2013135;28;19992;-77
2022/04/23 05:00:42;;;;;;;;;;;16.80;83.30;;;;;;2012988;28;19920;-77
2022/04/23 05:01:41;;;;;;;;;;;16.80;83.20;;;;;;2012294;28;20265;-77
2022/04/23 05:02:39;;;;;;;;;;;16.90;83.40;;;;;;2012291;28;19909;-76
2022/04/23 05:03:39;;;;;;;;;;;16.80;83.20;;;;;;2012333;28;19927;-76
2022/04/23 05:04:38;;;;;;;;;;;16.90;83.30;;;;;;2012945;28;19916;-76
2022/04/23 05:05:36;;;;;;;;;;;16.90;83.30;;;;;;2012911;28;20356;-76
2022/04/23 05:06:35;;;;;;;;;;;16.90;83.20;;;;;;2012548;28;19905;-78
2022/04/23 05:07:33;;;;;;;;;;;16.90;83.30;;;;;;2012709;28;20267;-76
2022/04/23 05:08:34;;;;;;;;;;;16.90;83.20;;;;;;2013078;28;19993;-76
2022/04/23 05:09:32;;;;;;;;;;;16.90;83.20;;;;;;2012880;28;19905;-76
2022/04/23 05:10:31;;;;;;;;;;;16.90;83.30;;;;;;2012914;28;19905;-77
2022/04/23 05:11:29;;;;;;;;;;;16.90;83.20;;;;;;2013028;28;19905;-78
2022/04/23 05:12:27;;;;;;;;;;;16.90;83.20;;;;;;2013000;28;19905;-77
2022/04/23 05:13:26;;;;;;;;;;;16.90;83.20;;;;;;2012896;28;19981;-77
2022/04/23 05:14:24;;;;;;;;;;;16.90;83.20;;;;;;2013024;28;19905;-77
2022/04/23 05:15:23;;;;;;;;;;;16.80;83.10;;;;;;2013071;28;19963;-76
2022/04/23 05:16:21;;;;;;;;;;;16.90;83.10;;;;;;2012736;28;20276;-78
2022/04/23 05:17:20;;;;;;;;;;;16.80;83.00;;;;;;2012874;28;19911;-77
2022/04/23 05:18:18;;;;;;;;;;;16.90;83.10;;;;;;2012973;28;19905;-76
2022/04/23 05:19:17;;;;;;;;;;;16.80;82.90;;;;;;2012897;28;19909;-77
2022/04/23 05:20:15;;;;;;;;;;;16.90;83.00;;;;;;2012925;28;19923;-78
2022/04/23 05:21:14;;;;;;;;;;;16.90;83.00;;;;;;2012964;28;19912;-77
2022/04/23 05:22:12;;;;;;;;;;;16.90;83.00;;;;;;2013095;28;19905;-76
2022/04/23 05:23:10;;;;;;;;;;;16.90;83.10;;;;;;2012476;28;20372;-77
2022/04/23 05:24:09;;;;;;;;;;;16.90;83.00;;;;;;2012421;28;19955;-77
2022/04/23 05:25:08;;;;;;;;;;;16.90;83.00;;;;;;2013124;28;20050;-77
2022/04/23 05:26:06;;;;;;;;;;;16.90;83.00;;;;;;2012965;28;19905;-77
2022/04/23 05:27:04;;;;;;;;;;;16.90;83.00;;;;;;2012779;28;19927;-76
2022/04/23 05:28:03;;;;;;;;;;;16.90;83.00;;;;;;2012945;28;19956;-76
2022/04/23 05:29:02;;;;;;;;;;;16.90;82.90;;;;;;2012861;28;20348;-76
2022/04/23 05:30:00;;;;;;;;;;;16.90;82.90;;;;;;2012818;28;19905;-77
2022/04/23 05:30:59;;;;;;;;;;;16.90;82.90;;;;;;2012972;28;19905;-76
2022/04/23 05:31:57;;;;;;;;;;;16.90;82.90;;;;;;2012815;28;20463;-76
2022/04/23 05:32:56;;;;;;;;;;;16.90;82.80;;;;;;2012196;28;19987;-75
2022/04/23 05:33:54;;;;;;;;;;;16.90;82.90;;;;;;2012236;28;20369;-76
2022/04/23 05:34:53;;;;;;;;;;;16.90;82.90;;;;;;2012769;28;19963;-76
2022/04/23 05:35:51;;;;;;;;;;;16.90;82.80;;;;;;2013000;28;19932;-77
2022/04/23 05:36:50;;;;;;;;;;;16.90;82.90;;;;;;2012881;28;20352;-76
2022/04/23 05:37:48;;;;;;;;;;;16.90;82.80;;;;;;2012998;28;20474;-77
2022/04/23 05:38:47;;;;;;;;;;;16.90;82.80;;;;;;2013074;28;19967;-77
2022/04/23 05:39:45;;;;;;;;;;;16.90;82.80;;;;;;2012912;28;20257;-78
2022/04/23 05:40:44;;;;;;;;;;;16.90;82.80;;;;;;2013022;28;19916;-78
2022/04/23 05:41:42;;;;;;;;;;;16.90;82.80;;;;;;2013067;28;19905;-77
2022/04/23 05:42:40;;;;;;;;;;;16.90;82.80;;;;;;2012960;28;19909;-77
2022/04/23 05:43:41;;;;;;;;;;;16.90;82.80;;;;;;2012794;28;20295;-76
2022/04/23 05:44:39;;;;;;;;;;;16.90;82.60;;;;;;2012882;28;19905;-76
2022/04/23 05:45:38;;;;;;;;;;;16.90;82.70;;;;;;2012843;28;19912;-77